createdAt,value
2018-11-28T00:00:31.178Z,25.22
2018-11-28T00:03:04.489Z,25.14
2018-11-28T00:05:33.561Z,25.18
2018-11-28T00:08:02.655Z,25.19
2018-11-28T00:10:31.747Z,25.06
2018-11-28T00:13:00.670Z,25.04
2018-11-28T00:15:29.822Z,25.12
2018-11-28T00:17:58.921Z,25.04
2018-11-28T00:20:28.014Z,24.97
2018-11-28T00:22:57.117Z,24.89
2018-11-28T00:25:26.217Z,24.90
2018-11-28T00:27:55.320Z,24.90
2018-11-28T00:30:25.279Z,24.91
2018-11-28T00:32:54.460Z,24.91
2018-11-28T00:35:24.551Z,24.89
2018-11-28T00:37:53.653Z,24.85
2018-11-28T00:40:23.709Z,24.82
2018-11-28T00:42:53.036Z,24.88
2018-11-28T00:45:24.927Z,24.89
2018-11-28T00:47:54.002Z,24.88
2018-11-28T00:50:25.160Z,24.88
2018-11-28T00:52:54.276Z,25.01
2018-11-28T00:55:23.568Z,24.96
2018-11-28T00:57:52.677Z,24.94
2018-11-28T01:00:24.173Z,25.02
2018-11-28T01:02:53.360Z,24.92
2018-11-28T01:05:22.526Z,24.85
2018-11-28T01:07:55.487Z,24.85
2018-11-28T01:10:25.371Z,24.93
2018-11-28T01:12:54.999Z,24.93
2018-11-28T01:15:24.142Z,24.91
2018-11-28T01:17:53.230Z,24.90
2018-11-28T01:20:23.273Z,25.01
2018-11-28T01:22:52.469Z,25.09
2018-11-28T01:25:22.244Z,25.11
2018-11-28T01:27:51.504Z,25.09
2018-11-28T01:30:21.573Z,25.13
2018-11-28T01:32:50.639Z,25.06
2018-11-28T01:35:20.518Z,25.06
2018-11-28T01:37:49.608Z,25.03
2018-11-28T01:40:19.571Z,25.07
2018-11-28T01:42:48.828Z,25.03
2018-11-28T01:45:19.693Z,25.07
2018-11-28T01:47:48.841Z,25.13
2018-11-28T01:50:18.743Z,25.10
2018-11-28T01:52:47.850Z,25.09
2018-11-28T01:55:17.908Z,25.13
2018-11-28T01:57:46.740Z,25.11
2018-11-28T02:00:18.122Z,25.07
2018-11-28T02:02:47.594Z,25.05
2018-11-28T02:05:16.671Z,25.02
2018-11-28T02:07:45.778Z,25.02
2018-11-28T02:10:15.657Z,24.95
2018-11-28T02:12:44.845Z,24.99
2018-11-28T02:15:16.604Z,24.98
2018-11-28T02:17:45.668Z,25.01
2018-11-28T02:20:15.570Z,25.06
2018-11-28T02:22:44.459Z,25.15
2018-11-28T02:25:14.443Z,25.16
2018-11-28T02:27:43.488Z,25.10
2018-11-28T02:30:13.697Z,25.12
2018-11-28T02:32:42.777Z,25.14
2018-11-28T02:35:12.602Z,25.10
2018-11-28T02:37:41.646Z,25.06
2018-11-28T02:40:11.626Z,25.04
2018-11-28T02:42:40.627Z,25.04
2018-11-28T02:45:25.406Z,25.11
2018-11-28T02:47:54.590Z,25.18
2018-11-28T02:50:23.675Z,25.21
2018-11-28T02:52:52.763Z,25.15
2018-11-28T02:55:21.859Z,25.17
2018-11-28T02:57:51.415Z,25.18
2018-11-28T03:00:22.305Z,25.16
2018-11-28T03:02:51.552Z,25.11
2018-11-28T03:05:20.630Z,25.09
2018-11-28T03:07:49.732Z,25.07
2018-11-28T03:10:19.797Z,25.09
2018-11-28T03:12:48.916Z,25.09
2018-11-28T03:15:38.663Z,25.15
2018-11-28T03:18:08.731Z,25.21
2018-11-28T03:20:37.846Z,25.16
2018-11-28T03:23:07.043Z,25.18
2018-11-28T03:25:36.172Z,25.14
2018-11-28T03:28:05.219Z,25.21
2018-11-28T03:30:34.368Z,25.23
2018-11-28T03:33:03.516Z,25.21
2018-11-28T03:35:32.715Z,25.24
2018-11-28T03:38:01.812Z,25.10
2018-11-28T03:40:30.862Z,25.08
2018-11-28T03:42:59.986Z,25.13
2018-11-28T03:45:29.072Z,25.13
2018-11-28T03:47:58.176Z,25.16
2018-11-28T03:50:27.263Z,25.20
2018-11-28T03:52:56.313Z,25.14
2018-11-28T03:55:25.395Z,25.09
2018-11-28T03:57:54.474Z,25.07
2018-11-28T04:00:23.486Z,25.07
2018-11-28T04:02:52.523Z,25.07
2018-11-28T04:05:21.647Z,25.09
2018-11-28T04:07:50.763Z,25.15
2018-11-28T04:10:19.816Z,25.08
2018-11-28T04:12:48.939Z,25.08
2018-11-28T04:15:21.728Z,25.08
2018-11-28T04:17:50.920Z,25.07
2018-11-28T04:20:21.882Z,25.11
2018-11-28T04:22:50.871Z,25.16
2018-11-28T04:25:20.851Z,25.16
2018-11-28T04:27:49.868Z,25.19
2018-11-28T04:30:19.838Z,25.18
2018-11-28T04:32:49.313Z,25.01
2018-11-28T04:35:18.407Z,25.13
2018-11-28T04:37:47.557Z,25.09
2018-11-28T04:40:17.396Z,25.08
2018-11-28T04:42:47.308Z,25.07
2018-11-28T04:45:26.268Z,25.12
2018-11-28T04:47:56.428Z,25.07
2018-11-28T04:50:25.700Z,25.04
2018-11-28T04:52:54.795Z,25.06
2018-11-28T04:55:23.875Z,25.03
2018-11-28T04:57:52.995Z,25.17
2018-11-28T05:00:24.770Z,25.10
2018-11-28T05:02:54.792Z,25.04
2018-11-28T05:05:23.995Z,25.04
2018-11-28T05:07:53.681Z,25.02
2018-11-28T05:10:28.848Z,25.07
2018-11-28T05:12:58.480Z,25.19
2018-11-28T05:15:29.375Z,25.09
2018-11-28T05:17:58.444Z,25.03
2018-11-28T05:20:35.305Z,25.08
2018-11-28T05:23:05.329Z,25.08
2018-11-28T05:25:35.023Z,25.14
2018-11-28T05:28:04.255Z,25.08
2018-11-28T05:30:33.955Z,25.08
2018-11-28T05:33:03.168Z,25.14
2018-11-28T05:35:37.631Z,25.04
2018-11-28T05:38:10.275Z,24.98
2018-11-28T05:40:39.359Z,25.10
2018-11-28T05:43:08.400Z,25.13
2018-11-28T05:45:37.578Z,25.14
2018-11-28T05:48:06.928Z,25.10
2018-11-28T05:50:36.142Z,25.12
2018-11-28T05:53:05.328Z,25.01
2018-11-28T05:55:34.456Z,25.04
2018-11-28T05:58:04.032Z,25.16
2018-11-28T06:00:40.716Z,25.15
2018-11-28T06:03:10.514Z,25.13
2018-11-28T06:05:40.047Z,24.96
2018-11-28T06:08:09.247Z,24.83
2018-11-28T06:10:38.484Z,24.97
2018-11-28T06:13:07.620Z,25.10
2018-11-28T06:15:36.738Z,25.15
2018-11-28T06:18:06.334Z,25.10
2018-11-28T06:20:35.423Z,25.23
2018-11-28T06:23:04.565Z,25.06
2018-11-28T06:25:33.643Z,24.97
2018-11-28T06:28:02.671Z,25.06
2018-11-28T06:30:31.852Z,25.10
2018-11-28T06:33:00.943Z,25.15
2018-11-28T06:35:30.138Z,25.13
2018-11-28T06:37:59.231Z,25.19
2018-11-28T06:40:28.372Z,25.12
2018-11-28T06:42:57.391Z,25.12
2018-11-28T06:45:26.575Z,25.02
2018-11-28T06:47:55.700Z,25.09
2018-11-28T06:50:24.797Z,25.15
2018-11-28T06:52:53.987Z,25.18
2018-11-28T06:55:23.395Z,25.11
2018-11-28T06:57:52.494Z,25.13
2018-11-28T07:00:22.279Z,25.11
2018-11-28T07:02:52.279Z,25.08
2018-11-28T07:05:21.725Z,25.03
2018-11-28T07:07:50.813Z,25.12
2018-11-28T07:10:20.851Z,25.21
2018-11-28T07:12:50.068Z,25.13
2018-11-28T07:15:20.266Z,25.10
2018-11-28T07:17:49.355Z,25.04
2018-11-28T07:20:18.673Z,25.04
2018-11-28T07:22:47.748Z,25.03
2018-11-28T07:25:18.584Z,25.06
2018-11-28T07:27:48.490Z,25.09
2018-11-28T07:30:23.286Z,25.10
2018-11-28T07:32:53.632Z,25.01
2018-11-28T07:35:22.874Z,24.89
2018-11-28T07:37:51.982Z,24.97
2018-11-28T07:40:22.220Z,24.96
2018-11-28T07:43:10.554Z,25.04
2018-11-28T07:45:46.062Z,25.06
2018-11-28T07:48:15.231Z,25.05
2018-11-28T07:50:44.410Z,25.06
2018-11-28T07:53:13.588Z,25.03
2018-11-28T07:55:42.601Z,24.99
2018-11-28T07:58:11.660Z,25.00
2018-11-28T08:00:40.775Z,25.03
2018-11-28T08:03:10.344Z,25.02
2018-11-28T08:05:39.715Z,25.04
2018-11-28T08:08:10.787Z,25.06
2018-11-28T08:10:39.897Z,25.04
2018-11-28T08:13:09.315Z,25.02
2018-11-28T08:15:38.428Z,24.99
2018-11-28T08:18:07.364Z,24.96
2018-11-28T08:20:36.719Z,25.04
2018-11-28T08:23:05.828Z,25.05
2018-11-28T08:25:35.043Z,24.98
2018-11-28T08:28:04.224Z,25.05
2018-11-28T08:30:33.328Z,25.09
2018-11-28T08:33:02.519Z,25.07
2018-11-28T08:35:31.734Z,24.94
2018-11-28T08:38:00.975Z,24.98
2018-11-28T08:40:30.208Z,25.05
2018-11-28T08:42:59.615Z,25.01
2018-11-28T08:45:28.711Z,25.05
2018-11-28T08:47:58.587Z,25.09
2018-11-28T08:50:34.241Z,25.08
2018-11-28T08:53:05.205Z,25.09
2018-11-28T08:55:35.691Z,25.04
2018-11-28T08:58:05.063Z,24.97
2018-11-28T09:00:35.367Z,25.14
2018-11-28T09:03:04.768Z,25.12
2018-11-28T09:05:34.840Z,25.08
2018-11-28T09:08:04.103Z,25.03
2018-11-28T09:10:33.225Z,25.09
2018-11-28T09:13:04.336Z,25.02
2018-11-28T09:15:31.760Z,24.96
2018-11-28T09:18:01.000Z,25.08
2018-11-28T09:20:30.023Z,25.07
2018-11-28T09:22:59.156Z,25.07
2018-11-28T09:25:28.213Z,25.09
2018-11-28T09:27:58.359Z,25.12
2018-11-28T09:30:27.440Z,25.07
2018-11-28T09:32:56.352Z,24.99
2018-11-28T09:35:25.551Z,25.08
2018-11-28T09:37:54.639Z,25.15
2018-11-28T09:40:26.610Z,25.08
2018-11-28T09:42:56.702Z,25.15
2018-11-28T09:45:25.852Z,25.12
2018-11-28T09:47:54.934Z,25.09
2018-11-28T09:50:25.901Z,25.00
2018-11-28T09:52:55.054Z,25.13
2018-11-28T09:55:28.940Z,25.16
2018-11-28T09:57:58.714Z,25.19
2018-11-28T10:00:28.622Z,25.16
2018-11-28T10:03:01.824Z,25.14
2018-11-28T10:05:32.016Z,25.16
2018-11-28T10:08:01.089Z,25.08
2018-11-28T10:10:30.207Z,25.00
2018-11-28T10:12:59.299Z,25.02
2018-11-28T10:15:28.890Z,25.06
2018-11-28T10:17:57.992Z,25.05
2018-11-28T10:20:27.103Z,25.07
2018-11-28T10:22:56.176Z,24.99
2018-11-28T10:25:26.104Z,24.95
2018-11-28T10:28:00.480Z,25.03
2018-11-28T10:30:32.403Z,25.07
2018-11-28T10:33:01.483Z,25.12
2018-11-28T10:35:30.712Z,25.08
2018-11-28T10:37:59.819Z,25.00
2018-11-28T10:40:28.981Z,24.84
2018-11-28T10:42:58.992Z,24.90
2018-11-28T10:45:29.723Z,24.89
2018-11-28T10:47:58.814Z,24.81
2018-11-28T10:50:27.908Z,24.77
2018-11-28T10:52:57.055Z,24.83
2018-11-28T10:55:26.783Z,24.83
2018-11-28T10:57:55.961Z,24.86
2018-11-28T11:00:32.725Z,24.80
2018-11-28T11:03:06.813Z,24.88
2018-11-28T11:05:41.013Z,24.84
2018-11-28T11:08:15.272Z,24.89
2018-11-28T11:11:48.345Z,24.94
2018-11-28T11:14:22.404Z,24.94
2018-11-28T11:16:51.447Z,24.81
2018-11-28T11:19:20.551Z,24.90
2018-11-28T11:21:49.698Z,24.94
2018-11-28T11:24:18.779Z,24.94
2018-11-28T11:26:47.873Z,24.88
2018-11-28T11:29:17.897Z,24.83
2018-11-28T11:31:47.033Z,24.82
2018-11-28T11:34:16.298Z,24.85
2018-11-28T11:36:45.463Z,24.94
2018-11-28T11:39:14.671Z,24.94
2018-11-28T11:41:43.768Z,24.94
2018-11-28T11:44:12.864Z,24.91
2018-11-28T11:46:41.870Z,24.90
2018-11-28T11:49:10.952Z,24.88
2018-11-28T11:51:40.077Z,24.87
2018-11-28T11:54:09.144Z,24.91
2018-11-28T11:56:38.236Z,24.89
2018-11-28T11:59:07.496Z,24.78
2018-11-28T12:01:36.558Z,24.87
2018-11-28T12:04:05.651Z,24.88
2018-11-28T12:06:34.727Z,24.92
2018-11-28T12:09:04.080Z,24.79
2018-11-28T12:11:33.136Z,24.63
2018-11-28T12:14:02.319Z,24.59
2018-11-28T12:16:31.429Z,24.58
2018-11-28T12:19:00.593Z,24.60
2018-11-28T12:21:29.524Z,24.55
2018-11-28T12:23:58.717Z,24.50
2018-11-28T12:26:27.896Z,24.49
2018-11-28T12:28:57.033Z,24.52
2018-11-28T12:31:26.107Z,24.48
2018-11-28T12:33:55.202Z,24.51
2018-11-28T12:36:24.292Z,24.46
2018-11-28T12:38:53.424Z,24.44
2018-11-28T12:41:22.489Z,24.50
2018-11-28T12:43:51.589Z,24.50
2018-11-28T12:46:20.723Z,24.49
2018-11-28T12:48:49.799Z,24.46
2018-11-28T12:51:19.668Z,24.50
2018-11-28T12:53:48.960Z,24.43
2018-11-28T12:56:18.111Z,24.41
2018-11-28T12:58:47.316Z,24.47
2018-11-28T13:01:16.412Z,24.42
2018-11-28T13:03:45.519Z,24.45
2018-11-28T13:06:14.718Z,24.45
2018-11-28T13:08:43.974Z,24.48
2018-11-28T13:11:13.103Z,24.41
2018-11-28T13:13:42.232Z,24.43
2018-11-28T13:16:11.301Z,24.42
2018-11-28T13:18:40.524Z,24.44
2018-11-28T13:21:09.709Z,24.41
2018-11-28T13:23:38.775Z,24.46
2018-11-28T13:26:08.004Z,24.36
2018-11-28T13:28:37.063Z,24.41
2018-11-28T13:31:06.490Z,24.37
2018-11-28T13:33:35.640Z,24.35
2018-11-28T13:36:04.883Z,24.41
2018-11-28T13:38:34.095Z,24.41
2018-11-28T13:41:03.182Z,24.43
2018-11-28T13:43:32.257Z,24.40
2018-11-28T13:46:01.343Z,24.43
2018-11-28T13:48:30.590Z,24.51
2018-11-28T13:50:59.645Z,24.55
2018-11-28T13:53:28.852Z,24.52
2018-11-28T13:58:28.391Z,24.54
2018-11-28T14:00:57.601Z,24.38
2018-11-28T14:03:26.788Z,24.48
2018-11-28T14:05:56.149Z,24.56
2018-11-28T14:08:25.475Z,24.58
2018-11-28T14:10:54.622Z,24.59
2018-11-28T14:13:23.731Z,24.61
2018-11-28T14:15:52.960Z,24.51
2018-11-28T14:18:22.175Z,24.42
2018-11-28T14:20:51.364Z,24.52
2018-11-28T14:23:20.591Z,24.58
2018-11-28T14:25:49.669Z,24.62
2018-11-28T14:28:18.615Z,24.65
2018-11-28T14:30:48.093Z,24.65
2018-11-28T14:33:17.340Z,24.57
2018-11-28T14:35:46.443Z,24.55
2018-11-28T14:38:15.551Z,24.51
2018-11-28T14:40:44.708Z,24.52
2018-11-28T14:43:13.823Z,24.54
2018-11-28T14:45:42.923Z,24.56
2018-11-28T14:48:12.044Z,24.59
2018-11-28T14:50:41.388Z,24.59
2018-11-28T14:53:10.571Z,24.58
2018-11-28T14:55:40.767Z,24.48
2018-11-28T14:58:10.968Z,24.42
2018-11-28T15:00:39.973Z,24.49
2018-11-28T15:03:18.739Z,24.44
2018-11-28T15:07:02.497Z,24.48
2018-11-28T15:09:51.875Z,24.45
2018-11-28T15:12:20.935Z,24.48
2018-11-28T15:14:50.044Z,24.48
2018-11-28T15:17:19.131Z,24.44
2018-11-28T15:19:48.235Z,24.43
2018-11-28T15:22:17.436Z,24.42
2018-11-28T15:24:46.680Z,24.42
2018-11-28T15:27:15.719Z,24.39
2018-11-28T15:29:44.851Z,24.31
2018-11-28T15:32:14.025Z,24.35
2018-11-28T15:34:43.121Z,24.41
2018-11-28T15:37:12.291Z,24.40
2018-11-28T15:39:41.483Z,24.37
2018-11-28T15:42:10.736Z,24.39
2018-11-28T15:44:39.775Z,24.42
2018-11-28T15:47:09.075Z,24.36
2018-11-28T15:49:39.300Z,24.41
2018-11-28T15:52:09.032Z,24.46
2018-11-28T15:54:38.144Z,24.58
2018-11-28T15:57:07.351Z,24.58
2018-11-28T15:59:36.456Z,24.59
2018-11-28T16:02:05.993Z,24.58
2018-11-28T16:04:35.224Z,24.56
2018-11-28T16:07:04.415Z,24.65
2018-11-28T16:09:38.583Z,24.67
2018-11-28T16:12:07.653Z,24.66
2018-11-28T16:14:36.911Z,24.66
2018-11-28T16:17:06.365Z,24.68
2018-11-28T16:19:35.447Z,24.73
2018-11-28T16:22:05.208Z,24.68
2018-11-28T16:24:34.449Z,24.72
2018-11-28T16:27:03.540Z,24.70
2018-11-28T16:29:32.639Z,24.78
2018-11-28T16:32:01.764Z,24.80
2018-11-28T16:34:31.059Z,24.83
2018-11-28T16:37:00.283Z,24.76
2018-11-28T16:39:29.333Z,24.76
2018-11-28T16:41:58.423Z,24.83
2018-11-28T16:44:27.629Z,24.76
2018-11-28T16:46:56.830Z,24.75
2018-11-28T16:49:26.008Z,24.76
2018-11-28T16:51:55.113Z,24.73
2018-11-28T16:54:24.211Z,24.80
2018-11-28T16:56:53.316Z,24.77
2018-11-28T16:59:22.445Z,24.81
2018-11-28T17:01:51.487Z,24.76
2018-11-28T17:04:20.619Z,24.80
2018-11-28T17:06:49.704Z,24.88
2018-11-28T17:09:18.796Z,24.86
2018-11-28T17:11:47.896Z,24.90
2018-11-28T17:14:16.988Z,24.81
2018-11-28T17:16:46.164Z,24.94
2018-11-28T17:19:15.259Z,24.91
2018-11-28T17:21:44.451Z,24.90
2018-11-28T17:24:13.588Z,24.84
2018-11-28T17:26:42.672Z,24.89
2018-11-28T17:29:11.755Z,25.01
2018-11-28T17:31:40.877Z,25.00
2018-11-28T17:34:09.972Z,25.00
2018-11-28T17:36:39.055Z,24.89
2018-11-28T17:39:11.882Z,24.73
2018-11-28T17:41:41.232Z,24.64
2018-11-28T17:44:10.472Z,24.65
2018-11-28T17:46:39.568Z,24.62
2018-11-28T17:49:08.720Z,24.67
2018-11-28T17:51:37.864Z,24.74
2018-11-28T17:54:07.554Z,24.82
2018-11-28T17:56:36.456Z,24.74
2018-11-28T17:59:05.663Z,24.76
2018-11-28T18:01:34.772Z,24.72
2018-11-28T18:04:03.951Z,24.82
2018-11-28T18:06:33.115Z,24.70
2018-11-28T18:09:02.299Z,24.74
2018-11-28T18:11:31.449Z,24.76
2018-11-28T18:14:00.681Z,24.80
2018-11-28T18:16:29.752Z,24.67
2018-11-28T18:18:58.755Z,24.66
2018-11-28T18:21:27.796Z,24.68
2018-11-28T18:23:56.857Z,24.64
2018-11-28T18:26:26.647Z,24.74
2018-11-28T18:28:55.815Z,24.77
2018-11-28T18:31:25.011Z,24.79
2018-11-28T18:33:54.233Z,24.81
2018-11-28T18:36:23.404Z,24.79
2018-11-28T18:38:52.590Z,24.70
2018-11-28T18:41:21.786Z,24.73
2018-11-28T18:43:50.877Z,24.84
2018-11-28T18:46:20.158Z,24.83
2018-11-28T18:48:49.378Z,24.84
2018-11-28T18:51:18.689Z,24.82
2018-11-28T18:53:49.563Z,24.78
2018-11-28T18:56:16.872Z,24.73
2018-11-28T18:58:46.161Z,24.72
2018-11-28T19:01:15.314Z,24.81
2018-11-28T19:03:44.420Z,24.82
2018-11-28T19:06:13.623Z,24.83
2018-11-28T19:08:42.894Z,24.84
2018-11-28T19:11:11.875Z,24.73
2018-11-28T19:13:41.159Z,24.66
2018-11-28T19:16:10.175Z,24.66
2018-11-28T19:18:39.321Z,24.71
2018-11-28T19:21:08.432Z,24.80
2018-11-28T19:23:37.652Z,24.82
2018-11-28T19:26:06.862Z,24.86
2018-11-28T19:28:35.955Z,24.80
2018-11-28T19:31:05.045Z,24.64
2018-11-28T19:33:34.327Z,24.65
2018-11-28T19:36:03.494Z,24.72
2018-11-28T19:38:32.680Z,24.71
2018-11-28T19:41:04.313Z,24.82
2018-11-28T19:43:33.488Z,24.80
2018-11-28T19:46:02.663Z,24.80
2018-11-28T19:48:31.785Z,24.77
2018-11-28T19:51:00.803Z,24.78
2018-11-28T19:53:30.028Z,24.80
2018-11-28T19:55:59.083Z,24.82
2018-11-28T19:58:28.332Z,24.87
2018-11-28T20:00:57.708Z,24.89
2018-11-28T20:03:26.839Z,24.89
2018-11-28T20:05:55.957Z,24.89
2018-11-28T20:08:25.174Z,24.81
2018-11-28T20:10:54.344Z,24.83
2018-11-28T20:13:23.421Z,24.89
2018-11-28T20:15:53.247Z,24.88
2018-11-28T20:18:22.608Z,24.88
2018-11-28T20:20:52.436Z,24.83
2018-11-28T20:23:21.842Z,24.74
2018-11-28T20:25:51.139Z,24.71
2018-11-28T20:28:20.228Z,24.71
2018-11-28T20:30:49.507Z,24.76
2018-11-28T20:33:18.804Z,24.85
2018-11-28T20:35:48.946Z,24.86
2018-11-28T20:38:23.333Z,24.88
2018-11-28T20:40:53.303Z,24.87
2018-11-28T20:43:22.667Z,24.89
2018-11-28T20:45:51.743Z,24.91
2018-11-28T20:48:20.838Z,24.93
2018-11-28T20:50:50.328Z,24.96
2018-11-28T20:53:20.279Z,25.00
2018-11-28T20:55:49.935Z,24.96
2018-11-28T20:58:19.044Z,24.94
2018-11-28T21:00:48.140Z,25.00
2018-11-28T21:03:17.274Z,24.93
2018-11-28T21:05:46.395Z,24.94
2018-11-28T21:08:15.247Z,24.95
2018-11-28T21:10:44.452Z,24.95
2018-11-28T21:13:14.028Z,24.93
2018-11-28T21:15:44.071Z,24.94
2018-11-28T21:18:13.204Z,24.98
2018-11-28T21:20:43.408Z,24.93
2018-11-28T21:23:13.862Z,24.95
2018-11-28T21:25:42.915Z,24.96
2018-11-28T21:28:12.027Z,24.98
2018-11-28T21:30:41.115Z,24.90
2018-11-28T21:33:10.902Z,24.94
2018-11-28T21:35:41.543Z,24.88
2018-11-28T21:38:10.867Z,24.93
2018-11-28T21:40:40.017Z,24.91
2018-11-28T21:43:09.252Z,24.95
2018-11-28T21:45:38.460Z,24.94
2018-11-28T21:48:07.863Z,24.87
2018-11-28T21:50:36.952Z,24.87
2018-11-28T21:53:07.022Z,24.85
2018-11-28T21:55:36.095Z,24.87
2018-11-28T21:58:05.244Z,24.90
2018-11-28T22:00:35.160Z,24.94
2018-11-28T22:03:04.371Z,24.97
2018-11-28T22:05:33.476Z,24.89
2018-11-28T22:08:02.475Z,24.87
2018-11-28T22:10:31.483Z,24.85
2018-11-28T22:13:00.572Z,24.87
2018-11-28T22:15:29.672Z,24.87
2018-11-28T22:17:59.398Z,24.91
2018-11-28T22:20:28.651Z,24.94
2018-11-28T22:22:57.864Z,24.85
2018-11-28T22:25:28.368Z,24.90
2018-11-28T22:27:57.444Z,24.88
2018-11-28T22:30:29.327Z,24.89
2018-11-28T22:32:58.779Z,24.90
2018-11-28T22:35:27.985Z,24.94
2018-11-28T22:37:57.076Z,24.95
2018-11-28T22:40:27.259Z,24.91
2018-11-28T22:42:56.415Z,24.97
2018-11-28T22:45:26.458Z,24.79
2018-11-28T22:47:55.611Z,24.87
2018-11-28T22:50:24.712Z,24.92
2018-11-28T22:52:53.832Z,24.95
2018-11-28T22:55:22.909Z,24.96
2018-11-28T22:57:52.007Z,24.93
2018-11-28T23:00:32.928Z,24.97
2018-11-28T23:03:03.248Z,24.93
2018-11-28T23:05:35.875Z,24.91
2018-11-28T23:08:06.299Z,24.91
2018-11-28T23:10:35.383Z,24.91
2018-11-28T23:13:04.518Z,24.96
2018-11-28T23:15:33.573Z,24.90
2018-11-28T23:18:02.672Z,24.92
2018-11-28T23:20:31.778Z,24.93
2018-11-28T23:23:00.885Z,24.93
2018-11-28T23:25:29.995Z,24.93
2018-11-28T23:27:59.080Z,24.93
2018-11-28T23:30:28.185Z,24.96
2018-11-28T23:32:57.275Z,24.94
2018-11-28T23:35:26.727Z,24.90
2018-11-28T23:37:55.874Z,24.84
2018-11-28T23:40:25.785Z,24.90
2018-11-28T23:42:55.393Z,24.89
2018-11-28T23:45:24.835Z,24.94
2018-11-28T23:47:54.004Z,24.91
2018-11-28T23:50:23.791Z,24.83
2018-11-28T23:52:53.519Z,24.90
2018-11-28T23:55:25.141Z,24.85
2018-11-28T23:57:54.420Z,24.86
